Time;durP1;ratioP1;P1;durP2;ratioP2;P2;SDS_P1;SDS_P2;PMS_P1;PMS_P2;Temp;Humidity;BMP_temperature;BMP_pressure;BME280_temperature;BME280_humidity;BME280_pressure;Samples;Min_cycle;Max_cycle;Signal;HPM_P1;HPM_P2
2022/10/21 00:01:50;;;;;;;9.20;1.70;;;16.90;99.90;;;;;;4068273;29;20195;-94
2022/10/21 00:03:51;;;;;;;5.75;1.88;;;17.00;99.90;;;;;;4070826;29;20176;-95
2022/10/21 00:05:52;;;;;;;11.25;1.60;;;17.00;99.90;;;;;;4086455;29;20179;-95
2022/10/21 00:07:53;;;;;;;7.82;1.67;;;17.00;99.90;;;;;;4086584;29;20168;-94
2022/10/21 00:09:54;;;;;;;6.45;1.55;;;17.00;99.90;;;;;;4086281;29;20219;-93
2022/10/21 00:11:55;;;;;;;8.48;2.30;;;17.00;99.90;;;;;;4086249;29;20209;-92
2022/10/21 00:13:56;;;;;;;5.80;1.48;;;16.80;99.90;;;;;;4070701;29;20773;-92
2022/10/21 00:16:10;;;;;;;11.65;1.88;;;16.80;99.90;;;;;;4070692;29;20227;-92
2022/10/21 00:18:11;;;;;;;8.45;1.88;;;16.70;99.90;;;;;;4070886;29;20236;-92
2022/10/21 00:20:12;;;;;;;6.90;1.65;;;16.70;99.90;;;;;;4086196;29;20537;-93
2022/10/21 00:22:13;;;;;;;7.90;1.65;;;16.80;99.90;;;;;;4070422;29;20195;-94
2022/10/21 00:24:13;;;;;;;5.07;1.70;;;16.80;99.90;;;;;;4070402;29;20187;-94
2022/10/21 00:26:16;;;;;;;3.50;1.30;;;16.90;99.90;;;;;;4086400;29;20274;-92
2022/10/21 00:28:16;;;;;;;7.63;1.90;;;16.90;99.90;;;;;;4086396;29;20180;-91
2022/10/21 00:30:17;;;;;;;7.70;1.58;;;16.80;99.90;;;;;;4086267;29;20668;-92
2022/10/21 00:32:18;;;;;;;6.93;1.60;;;16.80;99.90;;;;;;4086225;29;20192;-93
2022/10/21 00:34:21;;;;;;;7.75;1.20;;;16.70;99.90;;;;;;4086296;29;20179;-92
2022/10/21 00:36:21;;;;;;;7.30;1.60;;;16.80;99.90;;;;;;4086026;29;20175;-93
2022/10/21 00:38:23;;;;;;;7.68;1.20;;;16.80;99.90;;;;;;4086279;29;20699;-92
2022/10/21 00:40:23;;;;;;;7.10;1.50;;;16.80;99.90;;;;;;4086065;29;20671;-92
2022/10/21 00:42:33;;;;;;;10.13;1.60;;;16.70;99.90;;;;;;4086106;29;20182;-94
2022/10/21 00:44:36;;;;;;;9.40;1.63;;;16.70;99.90;;;;;;4085904;29;20174;-93
2022/10/21 00:46:46;;;;;;;8.55;2.10;;;16.80;99.90;;;;;;4085865;29;20171;-93
2022/10/21 00:48:53;;;;;;;3.35;1.20;;;16.80;99.90;;;;;;4085701;29;20180;-93
2022/10/21 00:51:01;;;;;;;6.53;1.73;;;16.70;99.90;;;;;;4085817;29;20203;-94
2022/10/21 00:53:03;;;;;;;5.28;1.67;;;16.70;99.90;;;;;;4086000;29;20190;-91
2022/10/21 00:55:05;;;;;;;4.75;1.50;;;16.70;99.90;;;;;;4085980;29;20171;-94
2022/10/21 00:57:07;;;;;;;4.35;1.50;;;16.70;99.90;;;;;;4085831;29;20628;-92
2022/10/21 00:59:08;;;;;;;1.98;1.10;;;16.70;99.90;;;;;;4085847;29;20171;-92
2022/10/21 01:01:09;;;;;;;5.40;2.05;;;16.70;99.90;;;;;;4070063;29;20248;-94
2022/10/21 01:03:10;;;;;;;5.78;1.50;;;16.70;99.90;;;;;;4070116;29;20176;-92
2022/10/21 01:05:11;;;;;;;3.35;1.48;;;16.70;99.90;;;;;;4069892;29;20195;-92
2022/10/21 01:07:13;;;;;;;4.55;1.33;;;16.70;99.90;;;;;;4069915;29;20195;-93
2022/10/21 01:09:15;;;;;;;6.75;1.50;;;16.50;99.90;;;;;;4069685;29;20211;-92
2022/10/21 01:11:18;;;;;;;7.68;1.27;;;16.50;99.90;;;;;;4085684;29;20624;-93
2022/10/21 01:13:27;;;;;;;7.28;1.92;;;16.60;99.90;;;;;;4085160;29;20219;-92
2022/10/21 01:15:37;;;;;;;8.40;1.40;;;16.50;99.90;;;;;;4085243;29;20197;-91
2022/10/21 01:18:02;;;;;;;4.03;1.38;;;16.50;99.90;;;;;;4085511;29;20239;-92
2022/10/21 01:20:30;;;;;;;4.80;1.38;;;16.60;99.90;;;;;;4085374;29;20239;-94
2022/10/21 01:23:21;;;;;;;6.40;1.50;;;16.60;99.90;;;;;;4085358;29;20672;-91
2022/10/21 01:25:58;;;;;;;4.05;1.40;;;16.50;99.90;;;;;;4069372;29;20188;-93
2022/10/21 01:28:14;;;;;;;2.72;1.10;;;16.50;99.90;;;;;;4069610;29;20279;-91
2022/10/21 01:30:35;;;;;;;11.60;1.35;;;16.40;99.90;;;;;;4085230;29;20226;-93
2022/10/21 01:33:17;;;;;;;6.63;1.27;;;16.40;99.90;;;;;;4084967;29;20168;-91
2022/10/21 01:35:24;;;;;;;7.45;1.30;;;16.40;99.90;;;;;;4061815;29;20208;-93
2022/10/21 01:37:33;;;;;;;6.68;1.27;;;16.30;99.90;;;;;;4085135;29;20311;-91
2022/10/21 01:39:46;;;;;;;6.60;1.30;;;16.30;99.90;;;;;;4085355;29;20275;-92
2022/10/21 01:42:04;;;;;;;14.77;1.85;;;16.30;99.90;;;;;;4084874;29;20828;-93
2022/10/21 01:44:26;;;;;;;5.72;1.15;;;16.40;99.90;;;;;;4100955;29;20189;-93
2022/10/21 01:46:34;;;;;;;10.25;1.30;;;16.40;99.90;;;;;;4084770;29;20180;-91
2022/10/21 01:48:40;;;;;;;9.27;1.48;;;16.40;99.90;;;;;;4085170;29;20187;-93
2022/10/21 01:50:46;;;;;;;6.10;1.50;;;16.30;99.90;;;;;;4084962;29;20328;-94
2022/10/21 01:52:50;;;;;;;6.10;1.20;;;16.30;99.90;;;;;;4085021;29;20179;-94
2022/10/21 01:54:59;;;;;;;11.07;1.30;;;16.20;99.90;;;;;;4084840;29;20183;-93
2022/10/21 01:57:02;;;;;;;5.85;1.17;;;16.20;99.90;;;;;;4084706;29;20589;-93
2022/10/21 01:59:04;;;;;;;4.40;1.30;;;16.20;99.90;;;;;;4084748;29;20219;-95
2022/10/21 02:01:07;;;;;;;10.32;1.77;;;16.20;99.90;;;;;;4084981;29;20206;-92
2022/10/21 02:03:10;;;;;;;4.47;1.00;;;16.20;99.90;;;;;;4084885;29;20176;-94
2022/10/21 02:05:29;;;;;;;5.00;1.10;;;16.20;99.90;;;;;;4084872;29;20178;-94
2022/10/21 02:07:29;;;;;;;3.63;1.30;;;16.20;99.90;;;;;;4069059;29;20177;-91
2022/10/21 02:09:30;;;;;;;13.68;1.55;;;16.10;99.90;;;;;;4069212;29;20220;-94
2022/10/21 02:11:34;;;;;;;12.63;1.05;;;16.10;99.90;;;;;;4069103;29;20656;-92
2022/10/21 02:13:46;;;;;;;8.13;1.30;;;16.00;99.90;;;;;;4084727;29;20183;-95
2022/10/21 02:15:49;;;;;;;5.72;1.40;;;16.00;99.90;;;;;;4084698;29;20210;-96
2022/10/21 02:17:56;;;;;;;10.05;1.25;;;16.00;99.90;;;;;;4084562;29;20172;-91
2022/10/21 02:19:59;;;;;;;4.47;1.23;;;16.00;99.90;;;;;;4084507;29;20230;-92
2022/10/21 02:22:02;;;;;;;5.05;0.90;;;16.00;99.90;;;;;;4068727;29;20269;-95
2022/10/21 02:24:15;;;;;;;11.88;1.30;;;16.00;99.90;;;;;;4084351;29;20171;-95
2022/10/21 02:26:16;;;;;;;12.95;1.35;;;15.90;99.90;;;;;;4083740;29;20233;-92
2022/10/21 02:28:18;;;;;;;9.40;0.95;;;15.90;99.90;;;;;;4084610;29;20263;-92
2022/10/21 02:30:19;;;;;;;6.43;1.30;;;15.90;99.90;;;;;;4084506;29;20222;-95
2022/10/21 02:32:49;;;;;;;6.85;1.13;;;16.00;99.90;;;;;;4084444;29;20203;-92
2022/10/21 02:35:05;;;;;;;6.90;0.98;;;16.00;99.90;;;;;;4084533;29;20664;-92
2022/10/21 02:37:27;;;;;;;11.93;1.23;;;16.00;99.90;;;;;;4068754;29;20596;-91
2022/10/21 02:39:34;;;;;;;6.47;1.33;;;16.00;99.90;;;;;;4068709;29;20279;-92
2022/10/21 02:41:37;;;;;;;4.13;1.00;;;15.80;99.90;;;;;;4084509;29;20199;-92
2022/10/21 02:43:53;;;;;;;5.95;1.00;;;15.80;99.90;;;;;;4084294;29;20175;-93
2022/10/21 02:46:05;;;;;;;6.07;1.00;;;15.80;99.90;;;;;;4068369;29;20572;-94
2022/10/21 02:48:06;;;;;;;4.10;0.98;;;15.80;99.90;;;;;;4068324;29;20235;-92
2022/10/21 02:50:07;;;;;;;5.35;1.30;;;15.90;99.90;;;;;;4068474;29;20673;-92
2022/10/21 02:52:08;;;;;;;4.68;1.15;;;15.90;99.90;;;;;;4084312;29;20196;-94
2022/10/21 02:54:08;;;;;;;6.22;0.98;;;15.90;99.90;;;;;;4084329;29;20636;-91
2022/10/21 02:56:09;;;;;;;6.32;1.10;;;15.90;99.90;;;;;;4084132;29;20189;-94
2022/10/21 02:58:10;;;;;;;2.95;1.17;;;15.90;99.90;;;;;;4084037;29;20660;-94
2022/10/21 03:00:11;;;;;;;3.47;1.08;;;15.90;99.90;;;;;;4084397;29;20730;-93
2022/10/21 03:02:12;;;;;;;6.00;1.10;;;15.90;99.90;;;;;;4068705;29;20199;-93
2022/10/21 03:04:13;;;;;;;11.00;1.08;;;15.90;99.90;;;;;;4084498;29;20172;-94
2022/10/21 03:06:14;;;;;;;5.25;1.15;;;15.90;99.90;;;;;;4084357;29;20243;-92
2022/10/21 03:08:15;;;;;;;8.75;1.20;;;15.90;99.90;;;;;;4084226;29;20707;-94
2022/10/21 03:10:16;;;;;;;4.93;0.98;;;15.90;99.90;;;;;;4084012;29;20219;-92
2022/10/21 03:12:16;;;;;;;7.57;1.23;;;16.00;99.90;;;;;;4084037;29;20214;-94
2022/10/21 03:14:17;;;;;;;7.32;1.10;;;15.90;99.90;;;;;;4084110;29;20707;-95
2022/10/21 03:16:17;;;;;;;3.92;1.20;;;15.90;99.90;;;;;;4068435;29;20188;-94
2022/10/21 03:18:18;;;;;;;7.85;1.20;;;15.90;99.90;;;;;;4083824;29;20184;-94
2022/10/21 03:20:19;;;;;;;3.40;0.82;;;15.90;99.90;;;;;;4084094;29;20675;-94
2022/10/21 03:22:20;;;;;;;3.08;1.15;;;15.80;99.90;;;;;;4083921;29;20687;-93
2022/10/21 03:24:21;;;;;;;3.53;0.95;;;15.80;99.90;;;;;;4052612;29;20207;-93
2022/10/21 03:26:21;;;;;;;5.97;1.20;;;15.80;99.90;;;;;;4068312;29;20176;-92
2022/10/21 03:28:22;;;;;;;4.10;1.17;;;15.90;99.90;;;;;;4068188;29;20185;-91
2022/10/21 03:30:23;;;;;;;4.70;1.15;;;15.90;99.90;;;;;;4083840;29;20562;-91
2022/10/21 03:32:24;;;;;;;5.28;1.25;;;15.90;99.90;;;;;;4068258;29;20172;-92
2022/10/21 03:34:24;;;;;;;4.53;1.17;;;15.70;99.90;;;;;;4083843;29;20183;-96
2022/10/21 03:36:25;;;;;;;5.38;1.13;;;15.70;99.90;;;;;;4068147;29;20188;-92
2022/10/21 03:38:26;;;;;;;6.75;1.00;;;15.60;99.90;;;;;;4086667;29;20210;-92
2022/10/21 03:40:28;;;;;;;5.20;1.27;;;15.60;99.90;;;;;;4071249;29;20547;-96
2022/10/21 03:42:29;;;;;;;5.63;1.40;;;15.60;99.90;;;;;;4071263;29;20228;-93
2022/10/21 03:44:31;;;;;;;4.82;1.00;;;15.50;99.90;;;;;;4071248;29;20651;-91
2022/10/21 03:46:32;;;;;;;3.58;1.23;;;15.50;99.90;;;;;;4086647;29;20172;-91
2022/10/21 03:48:33;;;;;;;3.67;1.00;;;15.40;99.90;;;;;;4086886;29;20259;-91
2022/10/21 03:50:33;;;;;;;3.70;1.08;;;15.40;99.90;;;;;;4086834;29;20739;-93
2022/10/21 03:52:34;;;;;;;2.95;1.10;;;15.40;99.90;;;;;;4071287;29;20168;-94
2022/10/21 03:54:35;;;;;;;7.78;1.27;;;15.70;99.90;;;;;;4071199;29;20716;-91
2022/10/21 03:56:35;;;;;;;5.00;1.20;;;16.00;99.90;;;;;;4071018;29;20173;-92
2022/10/21 03:58:36;;;;;;;6.93;1.40;;;16.30;99.90;;;;;;4070769;29;20701;-94
2022/10/21 04:00:37;;;;;;;3.25;1.08;;;16.50;99.90;;;;;;4070694;29;20172;-91
2022/10/21 04:02:38;;;;;;;4.93;1.42;;;16.40;99.90;;;;;;4070991;29;20199;-92
2022/10/21 04:04:38;;;;;;;3.42;1.13;;;16.50;99.90;;;;;;4070925;29;20263;-92
2022/10/21 04:06:39;;;;;;;6.80;1.35;;;16.70;99.90;;;;;;4071041;29;20184;-92
2022/10/21 04:08:40;;;;;;;7.78;1.50;;;16.80;99.90;;;;;;4086353;29;20183;-92
2022/10/21 04:10:41;;;;;;;2.78;1.10;;;16.40;99.90;;;;;;4086443;29;20219;-92
2022/10/21 04:12:41;;;;;;;5.38;1.40;;;16.10;99.90;;;;;;4070610;29;20183;-93
2022/10/21 04:14:42;;;;;;;7.18;1.27;;;16.00;99.90;;;;;;4070792;29;20281;-94
2022/10/21 04:16:43;;;;;;;5.95;1.08;;;15.80;99.90;;;;;;4086451;29;20660;-91
2022/10/21 04:18:43;;;;;;;3.53;1.00;;;15.60;99.90;;;;;;4070854;29;20185;-92
2022/10/21 04:20:44;;;;;;;7.20;1.40;;;15.60;99.90;;;;;;4070640;29;20188;-93
2022/10/21 04:22:45;;;;;;;5.32;1.63;;;15.90;99.90;;;;;;4070771;29;20172;-91
2022/10/21 04:24:46;;;;;;;10.55;1.65;;;16.00;99.90;;;;;;4086237;29;20210;-91
2022/10/21 04:26:46;;;;;;;7.35;1.45;;;15.90;99.90;;;;;;4086762;29;20175;-91
2022/10/21 04:28:47;;;;;;;5.90;1.33;;;15.80;99.90;;;;;;4070470;29;20267;-93
2022/10/21 04:30:50;;;;;;;9.52;1.33;;;15.60;99.90;;;;;;4070513;29;20196;-91
2022/10/21 04:32:51;;;;;;;5.60;1.30;;;15.70;99.90;;;;;;4102419;28;20203;-94
2022/10/21 04:34:52;;;;;;;4.28;1.17;;;15.60;99.90;;;;;;4070450;29;20180;-93
2022/10/21 04:36:52;;;;;;;5.93;1.17;;;15.50;99.90;;;;;;4070370;29;20634;-92
2022/10/21 04:38:53;;;;;;;4.75;1.23;;;15.60;99.90;;;;;;4086217;29;20180;-92
2022/10/21 04:40:59;;;;;;;4.75;1.50;;;15.60;99.90;;;;;;4070298;29;20188;-91
2022/10/21 04:43:00;;;;;;;27.13;1.73;;;15.60;99.90;;;;;;4086081;29;20186;-91
2022/10/21 04:45:01;;;;;;;4.25;1.20;;;15.70;99.90;;;;;;4070580;29;20511;-93
2022/10/21 04:47:01;;;;;;;5.28;1.20;;;15.70;99.90;;;;;;4070550;29;20183;-91
2022/10/21 04:49:02;;;;;;;2.63;1.15;;;15.70;99.90;;;;;;4085324;29;20255;-93
2022/10/21 04:51:03;;;;;;;5.53;1.25;;;15.70;99.90;;;;;;4086298;29;20201;-92
2022/10/21 04:53:04;;;;;;;3.10;1.20;;;15.70;99.90;;;;;;4070276;29;20641;-93
2022/10/21 04:55:05;;;;;;;17.23;1.95;;;15.70;99.90;;;;;;4070257;29;20263;-92
2022/10/21 04:57:06;;;;;;;5.90;1.58;;;15.70;99.90;;;;;;4085917;29;20220;-92
2022/10/21 04:59:06;;;;;;;4.25;1.63;;;15.80;99.90;;;;;;4085807;29;20192;-93
2022/10/21 05:01:07;;;;;;;3.58;1.20;;;15.70;99.90;;;;;;4085597;29;20191;-93
2022/10/21 05:03:08;;;;;;;11.43;1.60;;;15.60;99.90;;;;;;4085554;29;20187;-92
2022/10/21 05:05:09;;;;;;;5.78;1.40;;;15.70;99.90;;;;;;4085657;29;20164;-93
2022/10/21 05:07:09;;;;;;;4.78;1.20;;;15.70;99.90;;;;;;4085769;29;20264;-93
2022/10/21 05:09:10;;;;;;;5.82;1.17;;;15.70;99.90;;;;;;4085743;29;20203;-91
2022/10/21 05:11:11;;;;;;;11.80;1.90;;;15.80;99.90;;;;;;4069803;29;20263;-91
2022/10/21 05:13:12;;;;;;;10.88;1.30;;;15.80;99.90;;;;;;4069790;29;20255;-92
2022/10/21 05:15:13;;;;;;;5.60;1.30;;;15.90;99.90;;;;;;4085521;29;20243;-94
2022/10/21 05:17:14;;;;;;;3.85;1.20;;;15.90;99.90;;;;;;4085660;29;20235;-92
2022/10/21 05:19:15;;;;;;;4.90;1.20;;;15.90;99.90;;;;;;4085508;29;20634;-91
2022/10/21 05:21:16;;;;;;;4.47;1.40;;;15.90;99.90;;;;;;4101420;28;20199;-95
2022/10/21 05:23:17;;;;;;;10.10;1.50;;;15.90;99.90;;;;;;4085464;29;20671;-94
2022/10/21 05:25:18;;;;;;;6.88;1.55;;;15.90;99.90;;;;;;4085349;29;20218;-93
2022/10/21 05:27:19;;;;;;;11.80;1.65;;;15.90;99.90;;;;;;4085366;29;20199;-94
2022/10/21 05:29:20;;;;;;;6.40;1.50;;;16.00;99.90;;;;;;4069515;29;20243;-93
2022/10/21 05:31:21;;;;;;;6.88;1.40;;;15.80;99.90;;;;;;4085330;29;20621;-94
2022/10/21 05:33:21;;;;;;;3.88;1.30;;;15.80;99.90;;;;;;4085375;29;20183;-92
2022/10/21 05:35:22;;;;;;;5.95;1.45;;;15.80;99.90;;;;;;4085349;29;20172;-94
2022/10/21 05:37:23;;;;;;;5.30;1.38;;;15.80;99.90;;;;;;4069978;29;20247;-93
2022/10/21 05:39:24;;;;;;;11.52;1.25;;;15.70;99.90;;;;;;4070267;29;20199;-92
2022/10/21 05:41:24;;;;;;;12.98;1.45;;;15.70;99.90;;;;;;4085431;29;20230;-94
2022/10/21 05:43:26;;;;;;;5.32;1.63;;;15.70;99.90;;;;;;4085759;29;20605;-92
2022/10/21 05:45:27;;;;;;;10.38;1.20;;;15.80;99.90;;;;;;4085936;29;20246;-93
2022/10/21 05:47:28;;;;;;;7.28;1.75;;;15.90;99.90;;;;;;4085235;29;20179;-92
2022/10/21 05:49:29;;;;;;;8.30;1.75;;;15.90;99.90;;;;;;4085047;29;20235;-92
2022/10/21 05:51:29;;;;;;;6.95;1.70;;;16.00;99.90;;;;;;4085400;29;20202;-93
2022/10/21 05:53:30;;;;;;;3.42;1.40;;;16.10;99.90;;;;;;4085157;29;20179;-94
2022/10/21 05:55:31;;;;;;;5.15;1.60;;;16.00;99.90;;;;;;4085173;29;20179;-93
2022/10/21 05:57:36;;;;;;;9.02;1.58;;;16.10;99.90;;;;;;4086733;29;20192;-93
2022/10/21 05:59:36;;;;;;;5.00;1.50;;;16.10;99.90;;;;;;4085039;29;20676;-94
2022/10/21 06:01:38;;;;;;;7.85;1.40;;;16.10;99.90;;;;;;4084844;29;20199;-92
2022/10/21 06:03:39;;;;;;;9.65;1.85;;;16.00;99.90;;;;;;4084938;29;20175;-92
2022/10/21 06:05:39;;;;;;;11.32;1.88;;;16.10;99.90;;;;;;4069123;29;20172;-92
2022/10/21 06:07:40;;;;;;;5.18;1.45;;;16.00;99.90;;;;;;4069300;29;20204;-93
2022/10/21 06:09:41;;;;;;;9.68;1.70;;;16.10;99.90;;;;;;4069054;29;20211;-94
2022/10/21 06:11:42;;;;;;;11.40;1.60;;;16.10;99.90;;;;;;4084937;29;20223;-94
2022/10/21 06:13:43;;;;;;;6.32;1.42;;;16.10;99.90;;;;;;4068894;29;20180;-94
2022/10/21 06:15:43;;;;;;;7.15;1.80;;;16.10;99.90;;;;;;4084901;29;20219;-93
2022/10/21 06:17:44;;;;;;;6.70;1.20;;;16.10;99.90;;;;;;4084645;29;20324;-93
2022/10/21 06:19:45;;;;;;;4.82;1.55;;;16.10;99.90;;;;;;4069053;29;20172;-93
2022/10/21 06:21:46;;;;;;;9.73;1.60;;;16.10;99.90;;;;;;4084523;29;20206;-93
2022/10/21 06:23:47;;;;;;;6.07;1.80;;;16.10;99.90;;;;;;4084604;29;20191;-94
2022/10/21 06:25:59;;;;;;;5.93;1.98;;;16.10;99.90;;;;;;4068723;29;20184;-93
2022/10/21 06:28:00;;;;;;;11.95;2.10;;;16.10;99.90;;;;;;4084487;29;20182;-94
2022/10/21 06:30:01;;;;;;;7.32;1.75;;;16.20;99.90;;;;;;4084507;29;20651;-92
2022/10/21 06:32:02;;;;;;;6.65;1.95;;;16.20;99.90;;;;;;4084500;29;20688;-92
2022/10/21 06:34:02;;;;;;;8.55;2.00;;;16.20;99.90;;;;;;4069256;29;20647;-94
2022/10/21 06:36:03;;;;;;;9.15;1.70;;;16.30;99.90;;;;;;4084773;29;20180;-94
2022/10/21 06:38:04;;;;;;;12.85;1.90;;;16.20;99.90;;;;;;4084606;29;20191;-93
2022/10/21 06:40:05;;;;;;;6.75;1.80;;;16.20;99.90;;;;;;4084470;29;20214;-92
2022/10/21 06:42:06;;;;;;;7.53;2.17;;;16.30;99.90;;;;;;4099925;28;20213;-93
2022/10/21 06:44:21;;;;;;;6.20;1.73;;;16.20;99.90;;;;;;4084469;29;20262;-94
2022/10/21 06:46:21;;;;;;;12.43;2.00;;;16.00;99.90;;;;;;4084249;29;20624;-93
2022/10/21 06:48:22;;;;;;;9.35;2.10;;;16.10;99.90;;;;;;4084310;29;20271;-93
2022/10/21 06:50:23;;;;;;;9.20;1.88;;;16.00;99.90;;;;;;4084215;29;20291;-93
2022/10/21 06:52:24;;;;;;;7.10;2.40;;;15.90;99.90;;;;;;4068777;29;20177;-92
2022/10/21 06:54:25;;;;;;;13.15;2.25;;;15.90;99.90;;;;;;4068424;29;20183;-93
2022/10/21 06:56:26;;;;;;;10.00;2.13;;;15.80;99.90;;;;;;4084028;29;20698;-93
2022/10/21 06:58:28;;;;;;;4.50;1.92;;;15.90;99.90;;;;;;4084061;29;20175;-94
2022/10/21 07:00:29;;;;;;;8.30;2.28;;;15.90;99.90;;;;;;4084067;29;20272;-93
2022/10/21 07:02:29;;;;;;;11.15;2.10;;;16.00;99.90;;;;;;4085092;29;20629;-95
2022/10/21 07:04:33;;;;;;;7.85;2.50;;;16.00;99.90;;;;;;4068926;29;20212;-95
2022/10/21 07:06:34;;;;;;;10.15;2.22;;;16.10;99.90;;;;;;4085191;29;20171;-93
2022/10/21 07:09:05;;;;;;;6.78;2.20;;;16.20;99.90;;;;;;4084235;29;20178;-95
2022/10/21 07:11:07;;;;;;;10.85;2.15;;;16.20;99.90;;;;;;4100374;28;20206;-94
2022/10/21 07:13:08;;;;;;;8.57;2.00;;;16.30;99.90;;;;;;4071264;29;20541;-94
2022/10/21 07:15:09;;;;;;;7.80;2.05;;;16.40;99.90;;;;;;4087969;29;20203;-93
2022/10/21 07:17:10;;;;;;;12.32;2.20;;;16.40;99.90;;;;;;4087984;29;20715;-96
2022/10/21 07:19:11;;;;;;;9.32;1.90;;;16.40;99.90;;;;;;4087690;29;20258;-93
2022/10/21 07:21:17;;;;;;;9.38;2.45;;;16.50;99.90;;;;;;4087345;29;20295;-94
2022/10/21 07:23:18;;;;;;;15.05;2.55;;;16.50;99.90;;;;;;4087583;29;20180;-94
2022/10/21 07:25:19;;;;;;;8.80;1.88;;;16.50;99.90;;;;;;4087769;29;20548;-93
2022/10/21 07:27:19;;;;;;;8.02;2.15;;;16.50;99.90;;;;;;4087459;29;20201;-94
2022/10/21 07:29:20;;;;;;;8.70;2.40;;;16.50;99.90;;;;;;4088121;29;20199;-96
2022/10/21 07:31:23;;;;;;;8.07;2.45;;;16.60;99.90;;;;;;4072041;29;20200;-95
2022/10/21 07:33:26;;;;;;;14.50;2.13;;;16.70;99.90;;;;;;4073386;29;20549;-95
2022/10/21 07:35:27;;;;;;;8.57;2.15;;;16.70;99.90;;;;;;4088710;29;20179;-95
2022/10/21 07:37:28;;;;;;;9.07;1.90;;;16.80;99.90;;;;;;4071555;29;20191;-94
2022/10/21 07:39:29;;;;;;;9.20;2.33;;;16.70;99.90;;;;;;4072341;29;20330;-94
2022/10/21 07:41:39;;;;;;;8.68;1.83;;;16.70;99.90;;;;;;4088803;29;20204;-93
2022/10/21 07:43:43;;;;;;;5.93;1.63;;;16.70;99.90;;;;;;4088345;29;20198;-94
2022/10/21 07:45:44;;;;;;;6.47;1.50;;;16.60;99.90;;;;;;4074860;29;20610;-94
2022/10/21 07:47:45;;;;;;;8.70;2.13;;;16.60;99.90;;;;;;4079404;28;20160;-96
2022/10/21 07:49:47;;;;;;;7.70;1.65;;;16.60;99.90;;;;;;4096253;28;20624;-92
2022/10/21 07:51:51;;;;;;;8.88;1.55;;;16.70;99.90;;;;;;4081127;29;20196;-95
2022/10/21 07:53:55;;;;;;;5.72;1.45;;;16.70;99.90;;;;;;4081440;28;20964;-93
2022/10/21 07:56:24;;;;;;;5.38;1.30;;;16.80;99.90;;;;;;4098317;28;20183;-93
2022/10/21 07:58:30;;;;;;;7.32;1.65;;;16.90;99.90;;;;;;4100783;28;20255;-93
2022/10/21 08:00:31;;;;;;;5.00;1.70;;;17.00;99.90;;;;;;4099951;28;20171;-94
2022/10/21 08:02:35;;;;;;;2.65;1.40;;;17.10;99.90;;;;;;4101585;28;20167;-93
2022/10/21 08:04:38;;;;;;;5.57;1.40;;;17.20;99.90;;;;;;4098270;28;20175;-93
2022/10/21 08:06:40;;;;;;;6.10;1.50;;;17.20;99.90;;;;;;4112931;28;20219;-93
2022/10/21 08:08:41;;;;;;;5.75;1.42;;;17.10;99.90;;;;;;4084869;28;20168;-93
2022/10/21 08:10:42;;;;;;;3.60;1.30;;;17.10;99.90;;;;;;4080342;28;20224;-93
2022/10/21 08:12:44;;;;;;;4.88;1.25;;;17.00;99.90;;;;;;4100083;28;20187;-94
2022/10/21 08:14:45;;;;;;;4.60;1.30;;;17.00;99.90;;;;;;4094339;29;20199;-96
2022/10/21 08:16:53;;;;;;;7.53;1.50;;;17.00;99.90;;;;;;4081162;29;20219;-92
2022/10/21 08:18:54;;;;;;;7.60;1.45;;;17.00;99.90;;;;;;4095016;28;20215;-95
2022/10/21 08:20:55;;;;;;;5.45;1.27;;;17.00;99.90;;;;;;4093530;29;20334;-95
2022/10/21 08:22:56;;;;;;;9.48;1.52;;;17.10;99.90;;;;;;4091624;29;20175;-94
2022/10/21 08:24:56;;;;;;;16.42;1.65;;;17.10;99.90;;;;;;4077419;29;20259;-94
2022/10/21 08:26:57;;;;;;;5.57;1.40;;;17.30;99.90;;;;;;4091777;29;20288;-96
2022/10/21 08:29:00;;;;;;;5.70;1.50;;;17.40;99.90;;;;;;4090751;28;20171;-96
2022/10/21 08:31:21;;;;;;;7.38;1.98;;;17.50;99.90;;;;;;4093838;29;20187;-96
2022/10/21 08:33:22;;;;;;;8.43;1.10;;;17.80;99.90;;;;;;4092245;29;20164;-94
2022/10/21 08:35:23;;;;;;;6.25;1.30;;;17.60;99.90;;;;;;4075886;29;20263;-93
2022/10/21 08:37:28;;;;;;;3.70;0.98;;;17.60;99.90;;;;;;4108595;28;20162;-95
2022/10/21 08:39:29;;;;;;;4.88;1.17;;;17.80;99.90;;;;;;4077131;29;20576;-92
2022/10/21 08:41:30;;;;;;;6.55;0.95;;;18.20;99.90;;;;;;4092113;29;20270;-94
2022/10/21 08:43:34;;;;;;;4.13;1.02;;;18.10;99.90;;;;;;4077858;29;20196;-92
2022/10/21 08:45:47;;;;;;;6.45;1.02;;;18.20;99.90;;;;;;4093650;28;20175;-92
2022/10/21 08:47:53;;;;;;;7.93;0.90;;;18.40;99.90;;;;;;4091315;29;20287;-94
2022/10/21 08:49:57;;;;;;;5.30;0.80;;;18.60;99.90;;;;;;4093374;29;20215;-94
2022/10/21 08:52:03;;;;;;;2.85;1.08;;;18.40;99.90;;;;;;4093023;29;20195;-95
2022/10/21 08:54:10;;;;;;;2.22;0.70;;;18.60;99.90;;;;;;4092500;28;20641;-93
2022/10/21 08:56:18;;;;;;;3.83;1.15;;;19.00;99.90;;;;;;4095360;28;20171;-94
2022/10/21 08:58:22;;;;;;;1.70;0.70;;;19.30;99.90;;;;;;4096549;29;20186;-96
2022/10/21 09:00:28;;;;;;;9.32;1.65;;;19.20;99.90;;;;;;4066968;29;20169;-93
2022/10/21 09:02:41;;;;;;;5.63;1.20;;;19.20;99.90;;;;;;4102378;23;20266;-94
2022/10/21 09:05:06;;;;;;;5.22;1.02;;;19.30;99.90;;;;;;4113549;28;20182;-95
2022/10/21 09:07:47;;;;;;;5.18;1.30;;;19.60;99.90;;;;;;4128950;28;20174;-93
2022/10/21 09:10:09;;;;;;;4.03;1.75;;;19.70;99.90;;;;;;4099352;28;20222;-93
2022/10/21 09:12:28;;;;;;;2.90;0.90;;;19.30;99.90;;;;;;4111384;28;20203;-96
2022/10/21 09:14:46;;;;;;;2.25;0.90;;;19.00;99.90;;;;;;4125887;28;20174;-95
2022/10/21 09:17:04;;;;;;;7.45;0.73;;;19.10;99.90;;;;;;4125300;28;20182;-94
2022/10/21 09:19:26;;;;;;;1.88;0.50;;;19.00;99.90;;;;;;4112101;28;20226;-94
2022/10/21 09:22:07;;;;;;;0.95;0.32;;;19.20;99.90;;;;;;4110092;28;20238;-93
2022/10/21 09:25:06;;;;;;;2.33;0.40;;;19.00;99.90;;;;;;4112327;28;20207;-92
2022/10/21 09:27:09;;;;;;;1.13;0.38;;;19.30;99.90;;;;;;4077934;29;20180;-96
2022/10/21 09:29:33;;;;;;;2.15;0.50;;;19.40;99.90;;;;;;4080704;29;20192;-95
2022/10/21 09:31:38;;;;;;;0.73;0.30;;;19.50;99.90;;;;;;4087290;29;20293;-94
2022/10/21 09:34:00;;;;;;;5.40;0.63;;;19.60;99.90;;;;;;4127187;28;20178;-95
2022/10/21 09:36:22;;;;;;;3.38;0.40;;;19.80;99.90;;;;;;4113525;28;20159;-92
2022/10/21 09:39:07;;;;;;;2.95;0.32;;;20.00;99.90;;;;;;4111697;28;20191;-93
2022/10/21 09:41:16;;;;;;;2.08;0.38;;;19.90;99.90;;;;;;4089605;29;20237;-96
2022/10/21 09:43:22;;;;;;;1.15;0.40;;;19.50;99.90;;;;;;4126998;28;20198;-95
2022/10/21 09:45:33;;;;;;;2.85;0.40;;;19.40;99.90;;;;;;4109190;28;20171;-94
2022/10/21 09:47:34;;;;;;;3.30;0.60;;;19.40;99.90;;;;;;4127696;28;20207;-96
2022/10/21 09:49:36;;;;;;;0.80;0.47;;;19.50;99.90;;;;;;4126326;28;20210;-94
2022/10/21 09:51:39;;;;;;;2.85;0.50;;;19.40;99.90;;;;;;4105072;28;20202;-92
2022/10/21 09:53:54;;;;;;;2.25;0.45;;;19.40;99.90;;;;;;4125069;28;20162;-94
2022/10/21 09:56:01;;;;;;;4.20;0.57;;;19.70;99.90;;;;;;4123528;28;20185;-93
2022/10/21 09:58:03;;;;;;;2.00;0.50;;;19.90;99.90;;;;;;4106854;28;20200;-93
2022/10/21 10:00:06;;;;;;;4.72;0.63;;;20.00;99.90;;;;;;4105271;28;20242;-94
2022/10/21 10:02:15;;;;;;;1.55;0.57;;;20.10;99.90;;;;;;4124173;28;20253;-95
2022/10/21 10:04:32;;;;;;;6.43;0.50;;;20.20;99.90;;;;;;4108251;28;20195;-94
2022/10/21 10:06:42;;;;;;;1.77;0.40;;;20.20;99.90;;;;;;4123026;28;20194;-96
2022/10/21 10:08:46;;;;;;;7.72;0.50;;;20.00;99.90;;;;;;4105721;28;20259;-94
2022/10/21 10:10:50;;;;;;;4.63;0.55;;;19.80;99.90;;;;;;4109279;28;20301;-96
2022/10/21 10:12:57;;;;;;;9.00;0.57;;;19.70;99.90;;;;;;4110188;28;20186;-94
2022/10/21 10:15:24;;;;;;;2.05;0.45;;;19.60;99.90;;;;;;4106660;28;20182;-93
2022/10/21 10:17:38;;;;;;;4.72;0.40;;;19.60;99.90;;;;;;4123025;28;20240;-93
2022/10/21 10:19:39;;;;;;;2.58;0.45;;;19.50;99.90;;;;;;4107859;28;20166;-94
2022/10/21 10:21:40;;;;;;;5.43;0.60;;;19.60;99.90;;;;;;4105628;28;20203;-94
2022/10/21 10:23:45;;;;;;;1.75;0.43;;;19.70;99.90;;;;;;4123779;28;20174;-95
2022/10/21 10:25:49;;;;;;;6.38;0.68;;;19.80;99.90;;;;;;4108010;28;20194;-94
2022/10/21 10:28:04;;;;;;;1.00;0.50;;;19.90;99.90;;;;;;4110762;28;20234;-96
2022/10/21 10:30:14;;;;;;;5.38;0.70;;;19.90;99.90;;;;;;4105636;28;20703;-96
2022/10/21 10:32:15;;;;;;;4.90;0.80;;;19.70;99.90;;;;;;4107496;28;20199;-94
2022/10/21 10:34:22;;;;;;;8.43;0.60;;;19.80;99.90;;;;;;4107693;28;20702;-94
2022/10/21 10:36:31;;;;;;;3.40;0.60;;;19.70;99.90;;;;;;4111773;28;20183;-95
2022/10/21 10:38:54;;;;;;;2.88;0.52;;;19.60;99.90;;;;;;4104701;28;20206;-95
2022/10/21 10:41:12;;;;;;;6.47;0.60;;;19.40;99.90;;;;;;4120750;28;20205;-93
2022/10/21 10:43:27;;;;;;;3.92;0.70;;;19.50;99.90;;;;;;4105276;29;20166;-94
2022/10/21 10:45:33;;;;;;;5.13;0.57;;;19.70;99.90;;;;;;4108366;28;20285;-95
2022/10/21 10:47:45;;;;;;;3.72;0.70;;;19.90;99.90;;;;;;4106553;28;20183;-94
2022/10/21 10:49:49;;;;;;;6.57;1.05;;;20.00;99.90;;;;;;4103841;23;20335;-96
2022/10/21 10:52:05;;;;;;;5.85;0.70;;;20.00;99.90;;;;;;4090860;28;20199;-94